createdAt,value
2019-01-05T00:00:33.760Z,47.83
2019-01-05T00:03:12.645Z,54.50
2019-01-05T00:05:45.404Z,50.90
2019-01-05T00:08:18.189Z,51.70
2019-01-05T00:11:04.253Z,50.67
2019-01-05T00:13:50.692Z,52.80
2019-01-05T00:16:26.447Z,51.87
2019-01-05T00:18:56.571Z,50.50
2019-01-05T00:21:33.594Z,53.10
2019-01-05T00:24:19.805Z,54.30
2019-01-05T00:27:06.023Z,52.20
2019-01-05T00:29:36.275Z,52.27
2019-01-05T00:32:36.950Z,51.27
2019-01-05T00:35:21.657Z,52.17
2019-01-05T00:37:56.415Z,52.60
2019-01-05T00:40:33.307Z,51.67
2019-01-05T00:43:04.053Z,48.23
2019-01-05T00:45:34.640Z,51.80
2019-01-05T00:48:14.566Z,50.70
2019-01-05T00:50:50.134Z,51.80
2019-01-05T00:53:21.048Z,49.33
2019-01-05T00:56:07.840Z,49.37
2019-01-05T00:58:38.092Z,48.87
2019-01-05T01:01:24.065Z,50.53
2019-01-05T01:04:12.306Z,48.47
2019-01-05T01:06:44.891Z,49.27
2019-01-05T01:09:29.576Z,50.50
2019-01-05T01:11:59.725Z,48.50
2019-01-05T01:14:32.964Z,49.33
2019-01-05T01:17:19.278Z,50.27
2019-01-05T01:19:49.538Z,47.90
2019-01-05T01:22:35.999Z,48.57
2019-01-05T01:25:09.957Z,43.73
2019-01-05T01:27:43.064Z,51.90
2019-01-05T01:30:13.298Z,46.63
2019-01-05T01:33:01.615Z,44.00
2019-01-05T01:35:34.753Z,44.73
2019-01-05T01:38:38.956Z,45.00
2019-01-05T01:41:27.812Z,43.60
2019-01-05T01:44:14.378Z,42.47
2019-01-05T01:46:47.404Z,44.33
2019-01-05T01:49:19.586Z,43.53
2019-01-05T01:51:51.166Z,44.20
2019-01-05T01:54:24.578Z,44.40
2019-01-05T01:57:00.627Z,43.60
2019-01-05T01:59:33.770Z,45.80
2019-01-05T02:02:10.585Z,42.60
2019-01-05T02:04:43.742Z,44.10
2019-01-05T02:07:17.323Z,43.67
2019-01-05T02:09:55.151Z,43.57
2019-01-05T02:12:43.416Z,42.43
2019-01-05T02:15:31.216Z,43.87
2019-01-05T02:18:12.943Z,42.40
2019-01-05T02:20:57.565Z,41.90
2019-01-05T02:23:51.477Z,42.93
2019-01-05T02:27:07.483Z,39.30
2019-01-05T02:29:46.289Z,39.07
2019-01-05T02:32:46.104Z,39.40
2019-01-05T02:35:46.151Z,38.00
2019-01-05T02:38:31.094Z,35.90
2019-01-05T02:41:29.416Z,36.60
2019-01-05T02:44:34.002Z,31.27
2019-01-05T02:47:34.037Z,31.37
2019-01-05T02:50:13.248Z,30.80
2019-01-05T02:53:04.226Z,27.77
2019-01-05T02:55:46.413Z,31.10
2019-01-05T02:58:54.746Z,30.73
2019-01-05T03:01:47.101Z,28.03
2019-01-05T03:05:01.767Z,28.70
2019-01-05T03:07:46.800Z,27.27
2019-01-05T03:10:34.574Z,30.10
2019-01-05T03:13:22.274Z,30.60
2019-01-05T03:16:16.869Z,28.40
2019-01-05T03:19:08.095Z,26.37
2019-01-05T03:22:28.267Z,26.70
2019-01-05T03:25:32.618Z,26.37
2019-01-05T03:28:14.560Z,24.70
2019-01-05T03:31:03.685Z,26.17
2019-01-05T03:33:57.420Z,28.50
2019-01-05T03:36:55.341Z,25.73
2019-01-05T03:39:55.021Z,23.77
2019-01-05T03:42:39.689Z,24.00
2019-01-05T03:45:41.289Z,23.37
2019-01-05T03:48:38.172Z,22.30
2019-01-05T03:51:38.419Z,21.70
2019-01-05T03:54:26.599Z,22.90
2019-01-05T03:57:11.082Z,22.27
2019-01-05T04:00:24.267Z,21.70
2019-01-05T04:03:09.201Z,21.20
2019-01-05T04:06:16.158Z,20.63
2019-01-05T04:09:04.160Z,20.47
2019-01-05T04:12:22.123Z,18.57
2019-01-05T04:15:14.702Z,19.60
2019-01-05T04:17:50.457Z,22.47
2019-01-05T04:20:58.098Z,21.03
2019-01-05T04:23:56.373Z,20.87
2019-01-05T04:27:06.754Z,17.70
2019-01-05T04:29:54.774Z,18.30
2019-01-05T04:33:01.965Z,19.27
2019-01-05T04:35:48.935Z,18.43
2019-01-05T04:38:54.714Z,21.77
2019-01-05T04:41:45.356Z,19.53
2019-01-05T04:44:46.926Z,20.70
2019-01-05T04:47:34.457Z,19.47
2019-01-05T04:50:31.332Z,18.40
2019-01-05T04:53:32.693Z,16.87
2019-01-05T04:56:46.173Z,18.67
2019-01-05T05:00:07.077Z,17.10
2019-01-05T05:03:12.553Z,17.27
2019-01-05T05:05:56.705Z,16.17
2019-01-05T05:09:05.430Z,14.47
2019-01-05T05:12:03.736Z,17.53
2019-01-05T05:14:54.533Z,14.70
2019-01-05T05:17:36.403Z,15.47
2019-01-05T05:20:48.514Z,15.73
2019-01-05T05:23:45.493Z,15.60
2019-01-05T05:27:08.092Z,18.33
2019-01-05T05:30:18.140Z,16.00
2019-01-05T05:33:10.602Z,15.53
2019-01-05T05:36:09.128Z,14.90
2019-01-05T05:39:11.379Z,16.13
2019-01-05T05:42:18.842Z,14.60
2019-01-05T05:45:18.687Z,14.03
2019-01-05T05:48:06.406Z,14.77
2019-01-05T05:50:48.269Z,14.00
2019-01-05T05:53:55.812Z,16.77
2019-01-05T05:56:40.497Z,14.93
2019-01-05T05:59:45.957Z,14.80
2019-01-05T06:02:36.587Z,14.50
2019-01-05T06:05:33.425Z,16.60
2019-01-05T06:08:42.191Z,14.83
2019-01-05T06:11:23.802Z,15.90
2019-01-05T06:14:20.580Z,18.20
2019-01-05T06:17:09.818Z,17.57
2019-01-05T06:20:12.567Z,17.03
2019-01-05T06:23:15.385Z,15.97
2019-01-05T06:26:28.667Z,16.60
2019-01-05T06:29:20.899Z,17.30
2019-01-05T06:32:39.043Z,16.73
2019-01-05T06:35:21.009Z,16.93
2019-01-05T06:38:26.732Z,16.10
2019-01-05T06:41:45.777Z,19.57
2019-01-05T06:44:53.072Z,16.60
2019-01-05T06:47:43.712Z,15.83
2019-01-05T06:50:46.059Z,17.80
2019-01-05T06:53:40.467Z,15.40
2019-01-05T06:56:36.073Z,13.70
2019-01-05T06:59:26.685Z,12.27
2019-01-05T07:02:32.597Z,14.37
2019-01-05T07:05:39.937Z,14.87
2019-01-05T07:08:29.404Z,13.30
2019-01-05T07:11:23.592Z,14.00
2019-01-05T07:14:14.441Z,12.77
2019-01-05T07:17:29.567Z,13.83
2019-01-05T07:20:26.223Z,13.33
2019-01-05T07:23:17.223Z,13.60
2019-01-05T07:26:29.293Z,12.90
2019-01-05T07:29:35.567Z,15.60
2019-01-05T07:32:17.237Z,17.67
2019-01-05T07:34:59.111Z,17.53
2019-01-05T07:37:48.392Z,17.60
2019-01-05T07:40:56.951Z,21.50
2019-01-05T07:43:50.748Z,21.37
2019-01-05T07:46:49.311Z,21.90
2019-01-05T07:50:00.965Z,26.17
2019-01-05T07:53:11.619Z,27.67
2019-01-05T07:56:20.367Z,28.00
2019-01-05T07:59:19.003Z,19.50
2019-01-05T08:02:08.151Z,16.17
2019-01-05T08:05:22.749Z,16.03
2019-01-05T08:08:32.969Z,16.20
2019-01-05T08:11:25.198Z,15.70
2019-01-05T08:14:20.357Z,22.90
2019-01-05T08:17:14.339Z,16.43
2019-01-05T08:19:59.414Z,17.00
2019-01-05T08:23:17.617Z,16.37
2019-01-05T08:26:21.753Z,21.40
2019-01-05T08:29:16.581Z,21.50
2019-01-05T08:32:25.417Z,21.60
2019-01-05T08:35:19.129Z,20.17
2019-01-05T08:38:24.528Z,19.33
2019-01-05T08:41:28.861Z,20.03
2019-01-05T08:44:27.128Z,21.13
2019-01-05T08:47:31.670Z,18.50
2019-01-05T08:50:46.347Z,16.97
2019-01-05T08:53:30.968Z,13.93
2019-01-05T08:56:21.688Z,15.00
2019-01-05T08:59:23.034Z,19.30
2019-01-05T09:02:28.800Z,19.93
2019-01-05T09:05:23.878Z,16.60
2019-01-05T09:08:21.219Z,21.37
2019-01-05T09:11:14.882Z,22.60
2019-01-05T09:14:14.863Z,21.90
2019-01-05T09:17:08.732Z,24.07
2019-01-05T09:20:02.835Z,24.95
2019-01-05T09:23:18.468Z,23.53
2019-01-05T09:26:35.190Z,24.27
2019-01-05T09:29:48.894Z,27.87
2019-01-05T09:32:56.231Z,26.10
2019-01-05T09:35:45.780Z,25.17
2019-01-05T09:38:55.560Z,22.70
2019-01-05T09:41:59.826Z,26.07
2019-01-05T09:45:15.676Z,24.37
2019-01-05T09:48:12.491Z,20.07
2019-01-05T09:50:48.580Z,18.00
2019-01-05T09:53:30.344Z,14.50
2019-01-05T09:56:12.415Z,14.47
2019-01-05T09:59:09.320Z,12.20
2019-01-05T10:01:48.248Z,12.13
2019-01-05T10:04:35.732Z,12.40
2019-01-05T10:07:31.252Z,11.90
2019-01-05T10:10:29.516Z,11.63
2019-01-05T10:13:22.056Z,11.87
2019-01-05T10:16:35.336Z,14.63
2019-01-05T10:19:29.070Z,12.90
2019-01-05T10:22:19.955Z,15.20
2019-01-05T10:25:30.327Z,19.30
2019-01-05T10:28:39.160Z,15.57
2019-01-05T10:32:03.224Z,14.63
2019-01-05T10:35:01.468Z,17.13
2019-01-05T10:37:58.516Z,23.53
2019-01-05T10:40:40.469Z,19.23
2019-01-05T10:43:49.050Z,20.63
2019-01-05T10:46:51.749Z,17.93
2019-01-05T10:49:44.112Z,15.70
2019-01-05T10:52:39.725Z,16.37
2019-01-05T10:55:43.751Z,13.97
2019-01-05T10:58:55.318Z,14.30
2019-01-05T11:02:00.938Z,15.20
2019-01-05T11:04:45.476Z,11.43
2019-01-05T11:07:36.357Z,14.70
2019-01-05T11:10:41.844Z,14.87
2019-01-05T11:13:37.545Z,14.30
2019-01-05T11:16:30.518Z,15.00
2019-01-05T11:19:15.160Z,14.70
2019-01-05T11:21:52.152Z,14.60
2019-01-05T11:25:12.432Z,11.27
2019-01-05T11:28:23.742Z,9.80
2019-01-05T11:31:21.774Z,8.90
2019-01-05T11:34:03.945Z,11.70
2019-01-05T11:36:59.129Z,17.73
2019-01-05T11:40:17.829Z,12.03
2019-01-05T11:43:17.176Z,11.70
2019-01-05T11:46:13.737Z,13.88
2019-01-05T11:49:07.363Z,12.83
2019-01-05T11:52:08.315Z,13.17
2019-01-05T11:55:15.710Z,14.60
2019-01-05T11:58:12.572Z,18.70
2019-01-05T12:01:19.894Z,14.90
2019-01-05T12:04:04.991Z,10.87
2019-01-05T12:07:22.644Z,12.77
2019-01-05T12:10:25.725Z,11.07
2019-01-05T12:13:33.158Z,11.73
2019-01-05T12:16:40.653Z,12.73
2019-01-05T12:19:31.877Z,13.10
2019-01-05T12:22:36.448Z,12.30
2019-01-05T12:25:43.797Z,12.77
2019-01-05T12:28:50.059Z,20.40
2019-01-05T12:31:45.325Z,14.30
2019-01-05T12:34:38.981Z,13.33
2019-01-05T12:37:31.089Z,18.10
2019-01-05T12:40:42.408Z,15.97
2019-01-05T12:43:33.103Z,14.70
2019-01-05T12:46:26.695Z,16.73
2019-01-05T12:49:16.379Z,13.43
2019-01-05T12:52:03.967Z,15.67
2019-01-05T12:54:45.919Z,13.03
2019-01-05T12:57:59.549Z,13.10
2019-01-05T13:01:03.677Z,11.33
2019-01-05T13:04:15.567Z,13.23
2019-01-05T13:07:25.567Z,14.37
2019-01-05T13:10:25.639Z,14.20
2019-01-05T13:13:30.081Z,13.83
2019-01-05T13:16:54.512Z,13.50
2019-01-05T13:20:08.184Z,11.27
2019-01-05T13:23:03.484Z,39.67
2019-01-05T13:26:04.960Z,13.77
2019-01-05T13:28:46.920Z,14.10
2019-01-05T13:31:37.233Z,12.33
2019-01-05T13:34:47.229Z,11.40
2019-01-05T13:37:28.815Z,11.60
2019-01-05T13:40:35.907Z,10.43
2019-01-05T13:43:17.655Z,13.10
2019-01-05T13:46:02.560Z,9.57
2019-01-05T13:49:08.603Z,10.67
2019-01-05T13:51:47.606Z,9.90
2019-01-05T13:54:33.569Z,10.73
2019-01-05T13:57:12.636Z,10.60
2019-01-05T13:59:48.695Z,9.37
2019-01-05T14:02:27.814Z,8.30
2019-01-05T14:05:03.650Z,8.67
2019-01-05T14:07:50.058Z,9.43
2019-01-05T14:10:20.133Z,9.60
2019-01-05T14:12:53.290Z,11.20
2019-01-05T14:15:26.754Z,28.07
2019-01-05T14:18:14.475Z,11.07
2019-01-05T14:20:53.303Z,10.17
2019-01-05T14:23:29.982Z,10.87
2019-01-05T14:26:20.426Z,11.27
2019-01-05T14:29:02.311Z,9.43
2019-01-05T14:31:35.066Z,10.40
2019-01-05T14:34:21.498Z,9.93
2019-01-05T14:36:51.593Z,13.83
2019-01-05T14:39:37.406Z,9.23
2019-01-05T14:42:07.491Z,7.97
2019-01-05T14:44:41.070Z,7.97
2019-01-05T14:47:27.173Z,16.13
2019-01-05T14:50:13.629Z,9.27
2019-01-05T14:52:58.514Z,8.13
2019-01-05T14:55:40.192Z,10.17
2019-01-05T14:58:13.296Z,8.87
2019-01-05T15:00:55.798Z,6.60
2019-01-05T15:03:41.699Z,7.83
2019-01-05T15:06:11.792Z,7.57
2019-01-05T15:08:57.001Z,7.47
2019-01-05T15:11:43.469Z,8.40
2019-01-05T15:14:13.690Z,17.70
2019-01-05T15:17:01.960Z,8.70
2019-01-05T15:19:48.428Z,7.73
2019-01-05T15:22:21.268Z,7.50
2019-01-05T15:25:03.250Z,8.73
2019-01-05T15:27:33.367Z,8.70
2019-01-05T15:30:03.433Z,9.43
2019-01-05T15:32:33.539Z,11.90
2019-01-05T15:35:12.423Z,10.30
2019-01-05T15:37:54.415Z,10.40
2019-01-05T15:40:39.984Z,12.63
2019-01-05T15:43:12.937Z,13.73
2019-01-05T15:45:59.273Z,10.17
2019-01-05T15:48:35.561Z,9.93
2019-01-05T15:51:17.857Z,9.53
2019-01-05T15:53:50.963Z,9.17
2019-01-05T15:56:30.565Z,10.53
2019-01-05T15:59:03.645Z,10.97
2019-01-05T16:01:33.835Z,12.03
2019-01-05T16:04:04.057Z,9.77
2019-01-05T16:06:46.349Z,11.33
2019-01-05T16:09:33.459Z,169.40
2019-01-05T16:12:15.959Z,11.80
2019-01-05T16:14:59.323Z,12.03
2019-01-05T16:17:29.799Z,11.03
2019-01-05T16:19:59.875Z,12.80
2019-01-05T16:22:33.416Z,11.47
2019-01-05T16:25:06.705Z,12.17
2019-01-05T16:27:52.809Z,12.17
2019-01-05T16:30:37.917Z,34.60
2019-01-05T16:33:23.963Z,13.27
2019-01-05T16:35:55.091Z,12.40
2019-01-05T16:38:27.748Z,12.73
2019-01-05T16:41:06.896Z,13.30
2019-01-05T16:43:51.843Z,14.20
2019-01-05T16:46:39.952Z,12.57
2019-01-05T16:49:13.007Z,13.73
2019-01-05T16:51:43.097Z,13.93
2019-01-05T16:54:29.189Z,14.00
2019-01-05T16:57:02.006Z,14.57
2019-01-05T16:59:37.822Z,14.60
2019-01-05T17:02:24.939Z,14.63
2019-01-05T17:05:11.050Z,14.30
2019-01-05T17:07:56.853Z,14.60
2019-01-05T17:10:32.993Z,14.33
2019-01-05T17:13:05.881Z,12.53
2019-01-05T17:15:38.429Z,14.30
2019-01-05T17:18:20.626Z,30.53
2019-01-05T17:20:56.439Z,12.93
2019-01-05T17:23:44.991Z,12.00
2019-01-05T17:26:31.380Z,13.40
2019-01-05T17:29:01.496Z,12.53
2019-01-05T17:31:37.790Z,12.83
2019-01-05T17:34:19.881Z,12.80
2019-01-05T17:37:05.775Z,12.80
2019-01-05T17:39:53.767Z,13.43
2019-01-05T17:42:35.704Z,13.60
2019-01-05T17:45:06.129Z,14.53
2019-01-05T17:47:48.052Z,13.13
2019-01-05T17:50:34.037Z,13.70
2019-01-05T17:53:09.799Z,15.00
2019-01-05T17:55:42.355Z,13.87
2019-01-05T17:58:21.147Z,15.07
2019-01-05T18:00:51.259Z,15.30
2019-01-05T18:03:37.139Z,13.77
2019-01-05T18:06:23.214Z,22.10
2019-01-05T18:08:59.048Z,18.43
2019-01-05T18:11:29.136Z,15.83
2019-01-05T18:14:15.035Z,15.23
2019-01-05T18:16:50.559Z,15.60
2019-01-05T18:19:38.496Z,16.53
2019-01-05T18:22:17.479Z,16.07
2019-01-05T18:24:53.148Z,15.10
2019-01-05T18:27:39.441Z,14.33
2019-01-05T18:30:26.276Z,14.67
2019-01-05T18:32:59.671Z,15.87
2019-01-05T18:35:35.769Z,13.83
2019-01-05T18:38:09.058Z,16.00
2019-01-05T18:40:51.209Z,14.47
2019-01-05T18:43:21.300Z,13.47
2019-01-05T18:45:54.340Z,14.30
2019-01-05T18:48:30.223Z,15.30
2019-01-05T18:51:02.784Z,20.13
2019-01-05T18:53:38.640Z,18.13
2019-01-05T18:56:08.739Z,17.17
2019-01-05T18:58:41.526Z,18.00
2019-01-05T19:01:27.692Z,18.67
2019-01-05T19:04:06.450Z,17.33
2019-01-05T19:06:42.473Z,20.27
2019-01-05T19:09:30.458Z,17.90
2019-01-05T19:12:16.872Z,17.77
2019-01-05T19:14:55.998Z,19.07
2019-01-05T19:17:42.131Z,20.80
2019-01-05T19:20:12.336Z,17.87
2019-01-05T19:22:42.764Z,19.00
2019-01-05T19:25:12.830Z,18.23
2019-01-05T19:27:51.747Z,20.27
2019-01-05T19:30:21.925Z,30.07
2019-01-05T19:32:54.791Z,20.13
2019-01-05T19:35:30.665Z,18.77
2019-01-05T19:38:06.463Z,17.70
2019-01-05T19:40:36.596Z,16.90
2019-01-05T19:43:22.516Z,17.87
2019-01-05T19:46:08.746Z,16.17
2019-01-05T19:48:41.273Z,18.93
2019-01-05T19:51:14.281Z,16.00
2019-01-05T19:53:46.792Z,18.67
2019-01-05T19:56:25.757Z,17.43
2019-01-05T19:58:58.517Z,18.13
2019-01-05T20:01:44.633Z,16.77
2019-01-05T20:04:17.435Z,16.23
2019-01-05T20:07:03.510Z,16.20
2019-01-05T20:09:49.448Z,17.63
2019-01-05T20:12:22.193Z,16.50
2019-01-05T20:15:01.260Z,19.27
2019-01-05T20:17:47.341Z,16.80
2019-01-05T20:20:36.608Z,17.80
2019-01-05T20:23:16.114Z,19.87
2019-01-05T20:25:48.604Z,23.93
2019-01-05T20:28:33.381Z,20.20
2019-01-05T20:31:05.919Z,20.17
2019-01-05T20:33:47.995Z,20.80
2019-01-05T20:36:34.048Z,20.73
2019-01-05T20:39:09.923Z,19.20
2019-01-05T20:41:42.992Z,20.37
2019-01-05T20:44:29.238Z,21.67
2019-01-05T20:47:17.227Z,23.27
2019-01-05T20:50:03.101Z,21.63
2019-01-05T20:52:33.242Z,21.93
2019-01-05T20:55:03.297Z,20.60
2019-01-05T20:57:33.365Z,22.63
2019-01-05T21:00:09.499Z,22.90
2019-01-05T21:02:39.581Z,24.77
2019-01-05T21:05:18.645Z,23.20
2019-01-05T21:08:03.505Z,23.00
2019-01-05T21:10:39.337Z,22.53
2019-01-05T21:13:25.232Z,24.13
2019-01-05T21:16:03.801Z,25.17
2019-01-05T21:18:51.756Z,22.93
2019-01-05T21:21:24.519Z,24.43
2019-01-05T21:24:00.579Z,24.80
2019-01-05T21:26:46.753Z,26.93
2019-01-05T21:29:19.616Z,27.57
2019-01-05T21:31:52.429Z,28.50
2019-01-05T21:34:38.517Z,26.70
2019-01-05T21:37:08.603Z,27.33
2019-01-05T21:39:38.879Z,26.63
2019-01-05T21:42:23.542Z,28.60
2019-01-05T21:45:02.588Z,25.30
2019-01-05T21:47:41.423Z,25.20
2019-01-05T21:50:14.451Z,22.07
2019-01-05T21:52:47.303Z,23.57
2019-01-05T21:55:20.022Z,21.40
2019-01-05T21:58:08.164Z,19.93
2019-01-05T22:00:44.204Z,21.67
2019-01-05T22:03:30.348Z,21.17
2019-01-05T22:06:00.442Z,18.83
2019-01-05T22:08:33.483Z,19.13
2019-01-05T22:11:06.025Z,19.83
2019-01-05T22:13:52.165Z,19.77
2019-01-05T22:16:38.247Z,19.77
2019-01-05T22:19:11.016Z,19.30
2019-01-05T22:21:57.377Z,18.37
2019-01-05T22:24:29.943Z,20.70
2019-01-05T22:27:15.778Z,19.07
2019-01-05T22:29:45.858Z,20.20
2019-01-05T22:32:31.774Z,19.73
2019-01-05T22:35:13.923Z,21.53
2019-01-05T22:37:43.977Z,18.37
2019-01-05T22:40:14.077Z,19.77
2019-01-05T22:43:01.819Z,20.40
2019-01-05T22:45:47.094Z,22.20
2019-01-05T22:48:17.258Z,22.07
2019-01-05T22:50:47.411Z,25.10
2019-01-05T22:53:20.360Z,23.20
2019-01-05T22:55:56.259Z,23.47
2019-01-05T22:58:29.055Z,24.40
2019-01-05T23:00:59.175Z,25.23
2019-01-05T23:03:44.134Z,25.20
2019-01-05T23:06:14.205Z,27.70
2019-01-05T23:08:46.825Z,24.23
2019-01-05T23:11:32.934Z,22.60
2019-01-05T23:14:15.049Z,22.10
2019-01-05T23:17:01.308Z,21.30
2019-01-05T23:19:47.400Z,22.40
2019-01-05T23:22:35.217Z,19.97
2019-01-05T23:25:21.152Z,20.53
2019-01-05T23:30:51.715Z,19.17
2019-01-05T23:33:24.741Z,21.00
2019-01-05T23:36:09.611Z,19.10
2019-01-05T23:38:51.553Z,19.90
2019-01-05T23:41:24.584Z,19.87
2019-01-05T23:44:00.521Z,15.90
2019-01-05T23:46:30.733Z,17.67
2019-01-05T23:49:09.649Z,19.23
2019-01-05T23:51:39.743Z,14.90
2019-01-05T23:54:18.759Z,15.20
2019-01-05T23:57:04.860Z,15.43
2019-01-05T23:59:34.944Z,13.83
